Time;durP1;ratioP1;P1;durP2;ratioP2;P2;SDS_P1;SDS_P2;PMS_P1;PMS_P2;Temp;Humidity;BMP_temperature;BMP_pressure;BME280_temperature;BME280_humidity;BME280_pressure;Samples;Min_cycle;Max_cycle;Signal;HPM_P1;HPM_P2
2021/11/03 00:00:39;;;;;;;8.70;7.25;;;8.90;98.10;;;;;;5037648;28;20068;-87
2021/11/03 00:03:06;;;;;;;8.68;7.18;;;8.90;98.20;;;;;;5036189;28;20069;-87
2021/11/03 00:05:32;;;;;;;9.45;7.35;;;8.90;98.10;;;;;;5037274;28;20049;-87
2021/11/03 00:08:00;;;;;;;10.48;7.53;;;8.90;98.20;;;;;;5036943;28;20041;-87
2021/11/03 00:10:26;;;;;;;9.35;7.25;;;8.80;98.30;;;;;;5035765;28;20052;-87
2021/11/03 00:12:51;;;;;;;7.78;6.38;;;8.80;98.60;;;;;;5036967;28;20041;-87
2021/11/03 00:15:17;;;;;;;9.00;7.25;;;8.80;98.30;;;;;;5036596;28;20037;-87
2021/11/03 00:17:43;;;;;;;9.00;7.43;;;8.80;98.30;;;;;;5036675;28;20056;-87
2021/11/03 00:20:11;;;;;;;9.45;6.65;;;8.80;98.40;;;;;;5036900;28;20045;-87
2021/11/03 00:22:37;;;;;;;9.13;7.20;;;8.80;98.50;;;;;;5036020;28;20044;-87
2021/11/03 00:25:05;;;;;;;8.65;6.68;;;8.70;98.40;;;;;;5037071;28;20048;-87
2021/11/03 00:27:31;;;;;;;8.20;6.63;;;8.80;98.50;;;;;;5037256;28;20518;-87
2021/11/03 00:29:57;;;;;;;8.88;7.00;;;8.80;98.60;;;;;;5035107;28;20041;-87
2021/11/03 00:32:23;;;;;;;8.25;6.03;;;8.70;98.50;;;;;;5037254;28;20048;-87
2021/11/03 00:34:49;;;;;;;8.10;6.22;;;8.80;98.50;;;;;;5036408;28;20131;-87
2021/11/03 00:37:14;;;;;;;9.98;6.40;;;8.70;98.40;;;;;;5036313;28;20128;-87
2021/11/03 00:39:41;;;;;;;10.25;6.95;;;8.70;98.30;;;;;;5037087;28;20043;-87
2021/11/03 00:42:07;;;;;;;8.20;6.03;;;8.70;98.40;;;;;;5036333;28;20053;-87
2021/11/03 00:44:33;;;;;;;8.43;6.47;;;8.70;98.40;;;;;;5053318;28;20067;-87
2021/11/03 00:46:59;;;;;;;7.68;5.93;;;8.70;98.30;;;;;;5036290;28;20049;-87
2021/11/03 00:49:24;;;;;;;8.48;6.03;;;8.70;98.30;;;;;;5036519;28;20040;-86
2021/11/03 00:51:50;;;;;;;8.55;6.30;;;8.70;98.20;;;;;;5035871;28;20060;-87
2021/11/03 00:54:15;;;;;;;8.02;6.32;;;8.70;98.20;;;;;;5036340;28;20041;-88
2021/11/03 00:56:41;;;;;;;7.47;5.65;;;8.70;98.30;;;;;;5036603;28;20041;-86
2021/11/03 00:59:06;;;;;;;9.05;6.03;;;8.70;98.20;;;;;;5035370;28;20190;-87
2021/11/03 01:01:32;;;;;;;7.78;6.00;;;8.70;98.10;;;;;;5036342;28;20044;-86
2021/11/03 01:03:59;;;;;;;8.82;5.80;;;8.70;98.10;;;;;;5035830;28;20049;-86
2021/11/03 01:06:24;;;;;;;8.20;5.78;;;8.70;98.10;;;;;;5053208;28;20044;-86
2021/11/03 01:08:50;;;;;;;8.15;5.65;;;8.70;98.10;;;;;;5036639;28;20047;-86
2021/11/03 01:11:16;;;;;;;7.63;5.35;;;8.70;98.10;;;;;;5036079;28;20488;-86
2021/11/03 01:13:42;;;;;;;7.80;5.82;;;8.70;98.00;;;;;;5035589;28;20123;-86
2021/11/03 01:16:07;;;;;;;7.57;5.32;;;8.70;98.00;;;;;;5035735;28;20049;-86
2021/11/03 01:18:34;;;;;;;7.05;4.68;;;8.70;98.00;;;;;;5036223;28;20128;-85
2021/11/03 01:21:03;;;;;;;8.32;4.68;;;8.60;98.00;;;;;;5035116;28;20056;-87
2021/11/03 01:23:30;;;;;;;7.88;5.55;;;8.70;97.90;;;;;;5036118;28;20049;-87
2021/11/03 01:25:57;;;;;;;8.05;5.15;;;8.60;98.00;;;;;;5053086;28;20488;-86
2021/11/03 01:28:22;;;;;;;6.63;4.90;;;8.60;98.00;;;;;;5035900;28;20488;-86
2021/11/03 01:30:48;;;;;;;7.35;5.53;;;8.60;98.00;;;;;;5035896;28;20051;-86
2021/11/03 01:33:16;;;;;;;7.05;5.00;;;8.60;98.00;;;;;;5035012;28;20045;-86
2021/11/03 01:35:42;;;;;;;6.68;5.18;;;8.60;98.10;;;;;;5035605;28;20456;-86
2021/11/03 01:38:08;;;;;;;9.00;5.30;;;8.60;98.20;;;;;;5034378;28;20037;-86
2021/11/03 01:40:38;;;;;;;6.90;5.03;;;8.60;98.10;;;;;;5035290;28;20485;-86
2021/11/03 01:43:05;;;;;;;6.88;5.00;;;8.60;98.20;;;;;;5035116;28;20044;-86
2021/11/03 01:45:31;;;;;;;7.78;4.97;;;8.60;98.30;;;;;;5035921;28;20383;-86
2021/11/03 01:48:00;;;;;;;7.60;4.72;;;8.60;98.30;;;;;;5034614;28;20053;-86
2021/11/03 01:50:33;;;;;;;6.97;5.30;;;8.50;98.30;;;;;;5016227;28;20041;-85
2021/11/03 01:53:04;;;;;;;6.95;4.70;;;8.50;98.30;;;;;;5031856;28;20053;-86
2021/11/03 01:55:30;;;;;;;6.70;4.80;;;8.50;98.60;;;;;;5034165;28;20086;-86
2021/11/03 01:58:03;;;;;;;7.30;4.90;;;8.50;98.40;;;;;;5034909;28;20056;-86
2021/11/03 02:00:33;;;;;;;6.35;4.28;;;8.50;98.50;;;;;;5035702;28;20140;-86
2021/11/03 02:03:04;;;;;;;7.47;4.50;;;8.50;98.40;;;;;;5033918;28;20041;-87
2021/11/03 02:05:30;;;;;;;6.40;3.97;;;8.60;98.50;;;;;;5035459;28;20049;-86
2021/11/03 02:07:58;;;;;;;7.00;4.45;;;8.50;98.40;;;;;;5031938;28;20033;-86
2021/11/03 02:10:24;;;;;;;6.22;4.35;;;8.50;98.50;;;;;;5035561;28;20045;-86
2021/11/03 02:12:50;;;;;;;6.65;4.55;;;8.50;98.50;;;;;;5034926;28;20044;-86
2021/11/03 02:15:16;;;;;;;6.22;3.97;;;8.50;98.40;;;;;;5034039;28;20059;-86
2021/11/03 02:17:43;;;;;;;6.50;4.30;;;8.50;98.40;;;;;;5035028;28;20037;-86
2021/11/03 02:20:12;;;;;;;5.97;4.13;;;8.50;98.40;;;;;;5034028;28;20044;-86
2021/11/03 02:22:54;;;;;;;5.45;3.60;;;8.50;98.50;;;;;;5034553;28;20044;-86
2021/11/03 02:25:28;;;;;;;6.75;3.88;;;8.50;98.40;;;;;;5035059;28;20071;-86
2021/11/03 02:27:56;;;;;;;6.82;4.15;;;8.50;98.40;;;;;;5035265;28;20045;-87
2021/11/03 02:30:25;;;;;;;6.20;4.30;;;8.50;98.50;;;;;;5034733;28;20056;-86
2021/11/03 02:33:17;;;;;;;5.53;3.83;;;8.50;98.60;;;;;;5052539;28;20049;-87
2021/11/03 02:35:50;;;;;;;6.20;4.05;;;8.50;98.50;;;;;;5034893;28;20494;-86
2021/11/03 02:38:25;;;;;;;5.90;4.00;;;8.50;98.70;;;;;;5034188;28;20048;-86
2021/11/03 02:40:57;;;;;;;5.43;3.60;;;8.40;98.70;;;;;;5035597;28;20045;-86
2021/11/03 02:43:42;;;;;;;6.07;3.80;;;8.40;98.70;;;;;;5051811;28;20423;-86
2021/11/03 02:46:11;;;;;;;5.50;3.60;;;8.40;98.60;;;;;;5020275;28;20124;-86
2021/11/03 02:48:38;;;;;;;5.32;3.50;;;8.40;98.60;;;;;;5027998;28;20405;-86
2021/11/03 02:51:29;;;;;;;5.45;3.75;;;8.40;98.60;;;;;;5033705;28;20041;-86
2021/11/03 02:54:04;;;;;;;5.55;3.40;;;8.40;98.50;;;;;;5034828;28;20179;-86
2021/11/03 02:56:34;;;;;;;6.00;3.70;;;8.40;98.50;;;;;;5034674;28;20041;-86
2021/11/03 02:59:00;;;;;;;5.43;3.45;;;8.30;98.50;;;;;;5034037;28;20397;-86
2021/11/03 03:01:46;;;;;;;5.22;3.20;;;8.30;98.60;;;;;;5035205;28;20049;-86
2021/11/03 03:04:25;;;;;;;5.95;3.42;;;8.30;98.60;;;;;;5052059;28;20556;-86
2021/11/03 03:06:51;;;;;;;5.07;3.45;;;8.30;98.70;;;;;;5035791;28;20071;-87
2021/11/03 03:09:17;;;;;;;6.47;3.10;;;8.30;98.70;;;;;;5038047;28;20048;-86
2021/11/03 03:11:49;;;;;;;5.05;3.17;;;8.20;98.50;;;;;;5037629;28;20053;-86
2021/11/03 03:14:17;;;;;;;5.38;3.30;;;8.20;98.40;;;;;;5037000;28;20055;-86
2021/11/03 03:16:43;;;;;;;6.28;3.55;;;8.20;98.40;;;;;;5038194;28;20049;-86
2021/11/03 03:19:09;;;;;;;4.78;3.13;;;8.10;98.40;;;;;;5037302;28;20059;-86
2021/11/03 03:21:35;;;;;;;6.78;3.47;;;8.10;98.40;;;;;;5038452;28;20143;-86
2021/11/03 03:24:03;;;;;;;4.82;3.15;;;8.10;98.40;;;;;;5055441;28;20152;-86
2021/11/03 03:26:29;;;;;;;4.75;3.10;;;8.10;98.40;;;;;;5037906;28;20065;-86
2021/11/03 03:28:56;;;;;;;6.15;3.30;;;8.10;98.40;;;;;;5055755;28;20127;-86
2021/11/03 03:31:23;;;;;;;5.93;3.83;;;8.00;98.40;;;;;;5038313;28;20055;-86
2021/11/03 03:33:50;;;;;;;6.18;3.90;;;8.00;98.50;;;;;;5037084;28;20052;-86
2021/11/03 03:36:16;;;;;;;4.75;2.92;;;8.00;98.60;;;;;;5037941;28;20052;-86
2021/11/03 03:38:42;;;;;;;6.75;3.70;;;8.00;98.70;;;;;;5037525;28;20037;-86
2021/11/03 03:41:09;;;;;;;5.80;3.65;;;8.00;98.80;;;;;;5054367;28;20040;-86
2021/11/03 03:43:35;;;;;;;5.43;3.72;;;7.90;98.80;;;;;;5037531;28;20041;-86
2021/11/03 03:46:03;;;;;;;5.40;3.35;;;7.90;98.90;;;;;;5037700;28;20045;-86
2021/11/03 03:48:29;;;;;;;5.75;3.58;;;7.90;98.90;;;;;;5054486;28;20055;-86
2021/11/03 03:50:55;;;;;;;5.18;3.50;;;7.90;99.00;;;;;;5038130;28;20389;-86
2021/11/03 03:53:24;;;;;;;5.05;3.42;;;7.90;99.10;;;;;;5036753;28;20056;-86
2021/11/03 03:55:51;;;;;;;5.85;3.58;;;7.90;99.10;;;;;;5037796;28;20048;-86
2021/11/03 03:58:18;;;;;;;5.35;3.47;;;7.80;99.10;;;;;;5037182;28;20045;-86
2021/11/03 04:00:45;;;;;;;5.78;3.63;;;7.80;99.10;;;;;;5036736;28;20037;-86
2021/11/03 04:03:11;;;;;;;5.47;3.67;;;7.80;99.10;;;;;;5036962;28;20128;-86
2021/11/03 04:05:36;;;;;;;5.70;3.70;;;7.80;99.10;;;;;;5037049;28;20120;-86
2021/11/03 04:08:02;;;;;;;7.13;3.65;;;7.80;99.10;;;;;;5035491;28;20051;-86
2021/11/03 04:10:28;;;;;;;5.32;3.38;;;7.70;99.00;;;;;;5037261;28;20048;-87
2021/11/03 04:12:53;;;;;;;5.68;3.60;;;7.70;99.10;;;;;;5036926;28;20086;-86
2021/11/03 04:15:19;;;;;;;5.75;3.60;;;7.70;99.00;;;;;;5036280;28;20041;-87
2021/11/03 04:17:45;;;;;;;6.50;4.22;;;7.70;99.00;;;;;;5036783;28;20123;-86
2021/11/03 04:20:13;;;;;;;5.55;3.83;;;7.60;98.90;;;;;;5035942;28;20099;-86
2021/11/03 04:22:39;;;;;;;5.80;3.58;;;7.60;98.90;;;;;;5036206;28;20484;-87
2021/11/03 04:25:07;;;;;;;7.35;4.28;;;7.60;99.00;;;;;;5036623;28;20427;-86
2021/11/03 04:27:33;;;;;;;5.95;3.70;;;7.60;99.10;;;;;;5036947;28;20048;-86
2021/11/03 04:29:58;;;;;;;5.70;3.72;;;7.50;99.00;;;;;;5036141;28;20045;-86
2021/11/03 04:32:24;;;;;;;6.32;4.20;;;7.50;99.10;;;;;;5037119;28;20041;-86
2021/11/03 04:34:50;;;;;;;5.75;3.70;;;7.50;99.10;;;;;;5036349;28;20400;-85
2021/11/03 04:37:15;;;;;;;6.15;3.97;;;7.50;99.10;;;;;;5036173;28;20049;-86
2021/11/03 04:39:41;;;;;;;6.70;4.28;;;7.40;99.10;;;;;;5036691;28;20051;-86
2021/11/03 04:42:07;;;;;;;6.07;4.15;;;7.40;99.10;;;;;;5036389;28;20445;-85
2021/11/03 04:44:33;;;;;;;4.70;2.97;;;7.40;99.10;;;;;;5035956;28;20079;-86
2021/11/03 04:46:58;;;;;;;5.57;3.67;;;7.40;99.00;;;;;;5036951;28;20048;-86
2021/11/03 04:49:24;;;;;;;6.38;4.25;;;7.30;98.90;;;;;;5036155;28;20586;-86
2021/11/03 04:51:49;;;;;;;8.00;4.05;;;7.30;99.00;;;;;;5035846;28;20088;-86
2021/11/03 04:54:15;;;;;;;6.78;4.30;;;7.30;99.00;;;;;;5051710;28;20049;-86
2021/11/03 04:56:41;;;;;;;6.35;4.15;;;7.30;99.00;;;;;;5036076;28;20487;-85
2021/11/03 04:59:07;;;;;;;6.90;4.75;;;7.20;99.00;;;;;;5036437;28;20049;-86
2021/11/03 05:01:33;;;;;;;7.13;4.45;;;7.20;99.00;;;;;;5036049;28;20048;-86
2021/11/03 05:03:59;;;;;;;6.35;4.00;;;7.20;99.00;;;;;;5053643;28;20079;-86
2021/11/03 05:06:27;;;;;;;7.53;4.85;;;7.10;98.90;;;;;;5036312;28;20132;-85
2021/11/03 05:08:55;;;;;;;7.22;4.90;;;7.10;98.90;;;;;;5036799;28;20068;-86
2021/11/03 05:11:21;;;;;;;6.97;4.75;;;7.00;99.00;;;;;;5035212;28;20040;-86
2021/11/03 05:13:48;;;;;;;7.50;4.75;;;7.00;99.00;;;;;;5035866;28;20037;-85
2021/11/03 05:16:16;;;;;;;6.85;4.95;;;7.00;99.00;;;;;;5053664;28;20037;-86
2021/11/03 05:18:42;;;;;;;6.43;4.60;;;7.00;99.10;;;;;;5035548;28;20063;-85
2021/11/03 05:21:08;;;;;;;6.88;4.82;;;7.00;99.10;;;;;;5035037;28;20480;-86
2021/11/03 05:23:33;;;;;;;7.70;5.50;;;6.90;99.10;;;;;;5035379;28;20127;-86
2021/11/03 05:25:59;;;;;;;7.28;5.10;;;6.90;99.10;;;;;;5034948;28;20059;-86
2021/11/03 05:28:25;;;;;;;8.18;5.90;;;6.90;99.10;;;;;;5054236;28;20132;-86
2021/11/03 05:30:50;;;;;;;7.68;5.88;;;6.90;99.20;;;;;;5035688;28;20472;-85
2021/11/03 05:33:16;;;;;;;7.80;5.80;;;6.90;99.20;;;;;;5053123;28;20409;-86
2021/11/03 05:35:43;;;;;;;9.43;6.55;;;6.80;99.20;;;;;;5035724;28;20472;-86
2021/11/03 05:38:10;;;;;;;8.60;6.63;;;6.80;99.20;;;;;;5035428;28;20044;-86
2021/11/03 05:40:36;;;;;;;15.77;6.85;;;6.80;99.20;;;;;;5034565;28;20051;-86
2021/11/03 05:43:02;;;;;;;9.90;7.30;;;6.80;99.30;;;;;;5036121;28;20056;-85
2021/11/03 05:45:28;;;;;;;9.38;7.05;;;6.80;99.30;;;;;;5035795;28;20052;-85
2021/11/03 05:47:55;;;;;;;19.00;7.68;;;6.70;99.20;;;;;;5035255;28;20041;-85
2021/11/03 05:50:25;;;;;;;9.30;7.47;;;6.70;99.20;;;;;;5035519;28;20072;-86
2021/11/03 05:52:51;;;;;;;10.10;7.75;;;6.70;99.20;;;;;;5035491;28;20041;-87
2021/11/03 05:55:17;;;;;;;9.80;7.57;;;6.70;99.20;;;;;;5019207;28;20041;-86
2021/11/03 05:57:44;;;;;;;10.57;8.13;;;6.70;99.30;;;;;;5053626;28;20052;-86
2021/11/03 06:00:18;;;;;;;11.20;8.15;;;6.70;99.30;;;;;;5034589;28;20045;-85
2021/11/03 06:02:43;;;;;;;12.05;8.18;;;6.70;99.20;;;;;;5035706;28;20048;-86
2021/11/03 06:05:10;;;;;;;9.93;8.27;;;6.70;99.20;;;;;;5035305;28;20041;-85
2021/11/03 06:07:36;;;;;;;11.88;8.88;;;6.70;99.10;;;;;;5051659;28;20064;-86
2021/11/03 06:10:04;;;;;;;64.05;13.55;;;6.70;99.10;;;;;;5034406;28;20489;-86
2021/11/03 06:12:30;;;;;;;11.80;9.82;;;6.70;99.10;;;;;;5035378;28;20041;-85
2021/11/03 06:14:56;;;;;;;23.73;11.13;;;6.60;99.00;;;;;;5034793;28;20044;-86
2021/11/03 06:17:21;;;;;;;23.63;11.77;;;6.60;99.10;;;;;;5035351;28;20068;-86
2021/11/03 06:19:47;;;;;;;24.25;10.80;;;6.60;99.10;;;;;;5035922;28;20447;-86
2021/11/03 06:22:12;;;;;;;72.38;12.98;;;6.60;99.00;;;;;;5033439;28;20128;-87
2021/11/03 06:24:40;;;;;;;14.02;11.90;;;6.60;99.00;;;;;;5028968;28;20048;-87
2021/11/03 06:27:06;;;;;;;19.15;13.75;;;6.60;99.00;;;;;;5049105;28;20041;-87
2021/11/03 06:29:32;;;;;;;20.08;13.25;;;6.60;99.10;;;;;;5049870;28;20404;-86
2021/11/03 06:31:57;;;;;;;25.25;12.95;;;6.50;99.00;;;;;;5032106;28;20068;-86
2021/11/03 06:34:23;;;;;;;76.85;15.32;;;6.60;99.10;;;;;;5049896;28;20045;-86
2021/11/03 06:36:49;;;;;;;68.60;15.75;;;6.50;99.00;;;;;;5051594;28;20057;-87
2021/11/03 06:39:14;;;;;;;40.92;14.15;;;6.50;99.00;;;;;;5034839;28;20033;-86
2021/11/03 06:41:42;;;;;;;33.55;14.30;;;6.50;99.00;;;;;;5035979;28;20403;-84
2021/11/03 06:44:10;;;;;;;22.10;14.20;;;6.50;99.00;;;;;;5055215;28;20056;-86
2021/11/03 06:46:35;;;;;;;51.53;16.08;;;6.50;99.10;;;;;;5037487;28;20484;-85
2021/11/03 06:49:01;;;;;;;35.17;15.77;;;6.50;99.10;;;;;;5038240;28;20087;-87
2021/11/03 06:51:27;;;;;;;32.70;14.38;;;6.50;99.00;;;;;;5038067;28;20057;-85
2021/11/03 06:53:52;;;;;;;15.98;13.85;;;6.50;99.00;;;;;;5039374;28;20118;-84
2021/11/03 06:56:18;;;;;;;84.50;19.33;;;6.50;99.10;;;;;;5037932;28;20528;-85
2021/11/03 06:58:46;;;;;;;21.88;15.40;;;6.50;99.10;;;;;;5038901;28;20175;-85
2021/11/03 07:01:12;;;;;;;17.60;15.02;;;6.50;99.10;;;;;;5038690;28;20132;-89
2021/11/03 07:03:38;;;;;;;61.83;15.48;;;6.50;99.20;;;;;;5038724;28;20071;-91
2021/11/03 07:06:04;;;;;;;17.67;15.35;;;6.50;99.30;;;;;;5037447;28;20051;-91
2021/11/03 07:08:47;;;;;;;17.77;15.35;;;6.50;99.30;;;;;;5030757;28;20508;-89
2021/11/03 07:11:28;;;;;;;53.45;16.85;;;6.50;99.30;;;;;;5037210;28;20044;-88
2021/11/03 07:13:55;;;;;;;18.73;15.85;;;6.50;99.30;;;;;;5037901;28;20037;-89
2021/11/03 07:16:21;;;;;;;64.50;16.88;;;6.50;99.30;;;;;;5032880;28;20080;-88
2021/11/03 07:18:47;;;;;;;17.13;14.90;;;6.50;99.40;;;;;;5030477;28;20061;-87
2021/11/03 07:21:13;;;;;;;19.27;16.65;;;6.50;99.40;;;;;;5034396;28;20115;-87
2021/11/03 07:23:38;;;;;;;18.90;16.08;;;6.50;99.50;;;;;;5038020;28;20086;-87
2021/11/03 07:26:05;;;;;;;27.38;16.65;;;6.60;99.60;;;;;;5037657;28;20392;-87
2021/11/03 07:28:31;;;;;;;57.58;17.25;;;6.60;99.50;;;;;;5037491;28;20073;-86
2021/11/03 07:30:56;;;;;;;16.30;14.43;;;6.60;99.50;;;;;;5037036;28;20130;-88
2021/11/03 07:33:22;;;;;;;37.55;15.73;;;6.60;99.40;;;;;;5037446;28;20178;-87
2021/11/03 07:35:48;;;;;;;18.67;16.23;;;6.60;99.40;;;;;;5030535;28;20052;-87
2021/11/03 07:38:14;;;;;;;21.02;15.40;;;6.60;99.40;;;;;;5018371;28;20072;-87
2021/11/03 07:40:44;;;;;;;19.48;15.75;;;6.60;99.50;;;;;;5030849;28;20041;-87
2021/11/03 07:43:13;;;;;;;34.13;16.48;;;6.60;99.50;;;;;;5037778;28;20045;-87
2021/11/03 07:45:39;;;;;;;20.17;16.33;;;6.60;99.50;;;;;;5036655;28;20083;-87
2021/11/03 07:48:06;;;;;;;19.77;16.33;;;6.60;99.40;;;;;;5037673;28;20041;-89
2021/11/03 07:50:37;;;;;;;18.58;16.02;;;6.60;99.50;;;;;;5036945;28;20484;-87
2021/11/03 07:53:04;;;;;;;22.88;16.92;;;6.60;99.50;;;;;;5035632;28;20053;-90
2021/11/03 07:55:30;;;;;;;19.08;16.75;;;6.60;99.40;;;;;;5037659;28;20045;-86
2021/11/03 07:57:55;;;;;;;19.13;16.38;;;6.70;99.40;;;;;;5038478;28;20107;-89
2021/11/03 08:00:34;;;;;;;50.13;16.95;;;6.60;99.30;;;;;;5036631;28;20053;-92
2021/11/03 08:03:00;;;;;;;19.30;16.73;;;6.70;99.30;;;;;;5037682;28;20438;-89
2021/11/03 08:05:29;;;;;;;19.40;16.63;;;6.70;99.30;;;;;;5037435;28;20049;-89
2021/11/03 08:07:58;;;;;;;21.05;15.70;;;6.70;99.40;;;;;;5036550;28;20047;-88
2021/11/03 08:10:24;;;;;;;20.08;15.98;;;6.70;99.40;;;;;;5036661;28;20560;-89
2021/11/03 08:12:53;;;;;;;17.35;15.45;;;6.70;99.40;;;;;;5036776;28;20087;-89
2021/11/03 08:15:19;;;;;;;19.08;16.73;;;6.70;99.40;;;;;;5036445;28;20362;-90
2021/11/03 08:17:45;;;;;;;18.23;15.82;;;6.70;99.40;;;;;;5036776;28;20094;-90
2021/11/03 08:20:15;;;;;;;18.55;16.48;;;6.70;99.40;;;;;;5041173;28;20446;-89
2021/11/03 08:22:41;;;;;;;23.90;16.90;;;6.70;99.40;;;;;;5040165;28;20090;-87
2021/11/03 08:25:08;;;;;;;19.77;16.80;;;6.70;99.30;;;;;;5034618;28;20029;-89
2021/11/03 08:27:34;;;;;;;25.45;16.65;;;6.70;99.30;;;;;;5055300;28;20374;-87
2021/11/03 08:30:00;;;;;;;18.45;15.90;;;6.70;99.30;;;;;;5035222;28;20032;-87
2021/11/03 08:32:32;;;;;;;19.52;16.65;;;6.70;99.20;;;;;;5028119;28;20500;-87
2021/11/03 08:34:58;;;;;;;19.50;16.70;;;6.70;99.30;;;;;;5028562;28;20045;-88
2021/11/03 08:37:31;;;;;;;20.02;17.38;;;6.80;99.30;;;;;;5027690;28;20060;-87
2021/11/03 08:39:59;;;;;;;19.13;16.52;;;6.70;99.40;;;;;;5030493;28;20048;-87
2021/11/03 08:42:25;;;;;;;23.77;17.27;;;6.70;99.30;;;;;;5032848;28;20488;-87
2021/11/03 08:44:52;;;;;;;18.33;15.88;;;6.70;99.30;;;;;;5035499;28;20043;-87
2021/11/03 08:47:17;;;;;;;19.77;16.70;;;6.80;99.30;;;;;;5037211;28;20396;-89
2021/11/03 08:49:43;;;;;;;20.60;17.27;;;6.80;99.30;;;;;;5034728;28;20048;-89
2021/11/03 08:52:09;;;;;;;19.15;16.75;;;6.80;99.40;;;;;;5036121;28;20559;-89
2021/11/03 08:54:36;;;;;;;20.02;16.70;;;6.80;99.40;;;;;;5033256;28;20033;-88
2021/11/03 08:57:02;;;;;;;21.83;17.65;;;6.80;99.40;;;;;;5034531;28;20388;-87
2021/11/03 08:59:28;;;;;;;19.70;17.15;;;6.90;99.30;;;;;;5035794;28;20041;-88
2021/11/03 09:01:54;;;;;;;22.35;17.67;;;6.90;99.30;;;;;;5053928;28;20041;-88
2021/11/03 09:04:19;;;;;;;21.80;19.30;;;6.90;99.30;;;;;;5033934;28;20083;-88
2021/11/03 09:06:45;;;;;;;25.80;18.50;;;6.90;99.30;;;;;;5035943;28;20045;-88
2021/11/03 09:09:11;;;;;;;21.15;18.48;;;7.00;99.20;;;;;;5036410;28;20148;-87
2021/11/03 09:11:36;;;;;;;25.20;19.30;;;7.00;99.20;;;;;;5034671;28;20063;-88
2021/11/03 09:14:02;;;;;;;21.73;18.48;;;7.00;99.20;;;;;;5034626;28;20396;-89
2021/11/03 09:16:29;;;;;;;21.30;17.67;;;7.00;99.20;;;;;;5036098;28;20040;-88
2021/11/03 09:18:55;;;;;;;27.48;19.73;;;7.00;99.20;;;;;;5035936;28;20053;-89
2021/11/03 09:21:22;;;;;;;25.75;19.27;;;7.00;99.20;;;;;;5054196;28;20055;-89
2021/11/03 09:23:48;;;;;;;22.35;17.17;;;7.00;99.20;;;;;;5035740;28;20409;-88
2021/11/03 09:26:14;;;;;;;20.70;17.52;;;7.10;99.20;;;;;;5035108;28;20052;-88
2021/11/03 09:28:40;;;;;;;24.77;19.05;;;7.10;99.20;;;;;;5053439;28;20424;-88
2021/11/03 09:31:08;;;;;;;23.92;19.52;;;7.10;99.10;;;;;;5033268;28;20041;-89
2021/11/03 09:33:36;;;;;;;20.20;16.45;;;7.10;99.20;;;;;;5033055;28;20055;-90
2021/11/03 09:36:04;;;;;;;39.38;20.20;;;7.10;99.20;;;;;;5034908;28;20052;-89
2021/11/03 09:38:32;;;;;;;21.48;17.92;;;7.10;99.10;;;;;;5035554;28;20044;-88
2021/11/03 09:41:07;;;;;;;23.45;17.85;;;7.10;99.10;;;;;;5034821;28;20041;-87
2021/11/03 09:43:43;;;;;;;20.77;17.25;;;7.20;99.20;;;;;;5035841;28;20049;-89
2021/11/03 09:46:25;;;;;;;21.00;16.67;;;7.10;99.10;;;;;;5033954;28;20051;-87
2021/11/03 09:49:15;;;;;;;23.15;18.45;;;7.20;99.10;;;;;;5035596;28;20051;-89
2021/11/03 09:51:47;;;;;;;23.42;17.65;;;7.20;99.10;;;;;;5036102;28;20052;-87
2021/11/03 09:54:38;;;;;;;20.25;17.20;;;7.20;99.10;;;;;;5034689;28;20180;-87
2021/11/03 09:57:29;;;;;;;19.27;17.05;;;7.20;99.00;;;;;;5024894;28;20049;-88
2021/11/03 10:00:16;;;;;;;22.33;17.75;;;7.20;99.10;;;;;;5037291;28;20086;-90
2021/11/03 10:03:19;;;;;;;23.10;18.23;;;7.30;99.20;;;;;;5031271;28;20037;-89
2021/11/03 10:05:57;;;;;;;20.33;17.38;;;7.30;99.10;;;;;;5036245;28;20044;-88
2021/11/03 10:08:25;;;;;;;22.63;18.55;;;7.40;99.20;;;;;;5035826;28;20484;-88
2021/11/03 10:10:58;;;;;;;20.27;17.40;;;7.40;99.20;;;;;;5035914;28;20063;-88
2021/11/03 10:13:35;;;;;;;21.08;17.70;;;7.40;99.20;;;;;;5035651;28;20067;-89
2021/11/03 10:16:26;;;;;;;21.60;17.50;;;7.40;99.20;;;;;;5035094;28;20049;-89
2021/11/03 10:18:51;;;;;;;22.58;18.75;;;7.50;99.10;;;;;;5039969;28;20069;-89
2021/11/03 10:21:19;;;;;;;24.52;20.90;;;7.50;99.10;;;;;;5038612;28;20071;-90
2021/11/03 10:24:03;;;;;;;20.95;17.83;;;7.50;99.00;;;;;;5039325;28;20033;-90
2021/11/03 10:26:44;;;;;;;19.45;16.92;;;7.50;99.00;;;;;;5030922;28;20128;-91
2021/11/03 10:29:24;;;;;;;22.00;17.63;;;7.50;99.00;;;;;;5029327;28;20061;-89
2021/11/03 10:32:00;;;;;;;21.75;18.10;;;7.60;99.00;;;;;;5039182;28;20291;-90
2021/11/03 10:34:48;;;;;;;30.20;22.42;;;7.60;99.00;;;;;;5046445;28;20131;-90
2021/11/03 10:37:16;;;;;;;22.63;18.80;;;7.60;98.90;;;;;;5019597;28;20052;-90
2021/11/03 10:40:01;;;;;;;21.17;17.63;;;7.70;99.10;;;;;;5024730;28;20037;-90
2021/11/03 10:42:32;;;;;;;27.73;22.35;;;7.70;99.10;;;;;;5030148;28;20129;-90
2021/11/03 10:45:21;;;;;;;23.60;19.45;;;7.80;99.10;;;;;;5034533;28;20484;-89
2021/11/03 10:48:06;;;;;;;23.98;19.33;;;7.80;99.00;;;;;;5021553;28;20041;-90
2021/11/03 10:50:36;;;;;;;25.05;20.08;;;7.80;99.10;;;;;;5030287;28;20070;-89
2021/11/03 10:53:21;;;;;;;27.90;23.70;;;7.80;99.40;;;;;;5038825;28;20123;-89
2021/11/03 10:56:05;;;;;;;33.20;24.23;;;7.90;99.00;;;;;;5036441;28;20056;-89
2021/11/03 10:58:54;;;;;;;28.38;22.08;;;7.90;99.00;;;;;;5038847;28;20174;-88
2021/11/03 11:01:23;;;;;;;29.67;23.50;;;7.90;98.90;;;;;;5038921;28;20496;-89
2021/11/03 11:04:12;;;;;;;24.17;20.63;;;7.90;99.00;;;;;;5038643;28;20041;-89
2021/11/03 11:06:45;;;;;;;28.73;22.95;;;8.00;99.00;;;;;;5038380;28;20102;-84
2021/11/03 11:09:31;;;;;;;23.08;19.17;;;8.00;99.00;;;;;;5043117;23;20059;-85
2021/11/03 11:12:00;;;;;;;24.40;20.15;;;8.00;99.00;;;;;;5053549;28;20064;-84
2021/11/03 11:14:30;;;;;;;27.00;20.73;;;8.00;99.00;;;;;;5051838;28;20405;-87
2021/11/03 11:17:12;;;;;;;23.58;19.65;;;8.00;99.00;;;;;;5051787;28;20140;-86
2021/11/03 11:19:46;;;;;;;22.83;19.95;;;8.10;99.30;;;;;;5043582;28;20045;-88
2021/11/03 11:22:36;;;;;;;23.20;19.55;;;8.10;99.00;;;;;;5044100;28;20096;-87
2021/11/03 11:25:25;;;;;;;30.50;23.50;;;8.10;99.00;;;;;;5013406;23;1078733;-87
2021/11/03 11:28:15;;;;;;;24.65;19.70;;;8.10;98.80;;;;;;5046314;28;20045;-87
2021/11/03 11:31:20;;;;;;;23.73;19.73;;;8.10;98.80;;;;;;5037840;28;20048;-89
2021/11/03 11:34:03;;;;;;;25.73;21.17;;;8.10;98.80;;;;;;5010238;28;20409;-87
2021/11/03 11:37:14;;;;;;;25.58;21.27;;;8.20;98.90;;;;;;5031621;28;20053;-88
2021/11/03 11:40:07;;;;;;;23.25;19.50;;;8.20;98.80;;;;;;5049837;28;20403;-87
2021/11/03 11:42:37;;;;;;;24.15;19.52;;;8.20;98.90;;;;;;5018112;28;20152;-87
2021/11/03 11:45:20;;;;;;;24.10;20.42;;;8.20;98.80;;;;;;5046014;28;20040;-87
2021/11/03 11:47:50;;;;;;;22.77;19.25;;;8.20;98.90;;;;;;5049041;28;20404;-87
2021/11/03 11:50:28;;;;;;;27.73;22.40;;;8.30;98.90;;;;;;5038233;28;20404;-88
2021/11/03 11:52:55;;;;;;;26.30;21.83;;;8.30;98.80;;;;;;5037733;28;20053;-89
2021/11/03 11:55:28;;;;;;;23.63;19.63;;;8.30;98.80;;;;;;5050977;28;20503;-90
2021/11/03 11:58:23;;;;;;;23.50;19.75;;;8.30;98.80;;;;;;5038089;28;20092;-85
2021/11/03 12:01:13;;;;;;;23.52;19.65;;;8.40;98.70;;;;;;5037694;28;20037;-85
2021/11/03 12:03:46;;;;;;;23.83;19.33;;;8.40;98.70;;;;;;5038115;28;20041;-85
2021/11/03 12:06:12;;;;;;;24.70;20.08;;;8.40;98.80;;;;;;5052209;28;20045;-85
2021/11/03 12:09:17;;;;;;;25.20;20.48;;;8.40;98.70;;;;;;5037897;28;20554;-86
2021/11/03 12:11:51;;;;;;;23.58;19.85;;;8.40;98.70;;;;;;5035306;28;20382;-91
2021/11/03 12:14:43;;;;;;;25.27;20.83;;;8.40;98.70;;;;;;5046988;28;20099;-90
2021/11/03 12:17:08;;;;;;;24.58;20.15;;;8.40;98.70;;;;;;5039295;28;20048;-89
2021/11/03 12:19:38;;;;;;;23.52;19.38;;;8.50;98.70;;;;;;5042356;28;20045;-90
2021/11/03 12:22:23;;;;;;;25.98;21.45;;;8.50;98.70;;;;;;5057691;28;20048;-90
2021/11/03 12:24:55;;;;;;;25.55;20.25;;;8.50;98.70;;;;;;5051607;28;20041;-90
2021/11/03 12:27:24;;;;;;;23.60;19.67;;;8.50;98.70;;;;;;5042534;28;20045;-90
2021/11/03 12:30:02;;;;;;;26.17;20.58;;;8.50;98.70;;;;;;5043709;28;20618;-87
2021/11/03 12:32:53;;;;;;;23.95;19.50;;;8.50;98.70;;;;;;5050996;28;20051;-91
2021/11/03 12:35:19;;;;;;;26.05;20.45;;;8.60;98.70;;;;;;5051598;28;20467;-90
2021/11/03 12:37:50;;;;;;;25.23;20.10;;;8.60;98.70;;;;;;5038449;28;20076;-90
2021/11/03 12:40:52;;;;;;;24.25;20.17;;;8.60;98.70;;;;;;5042312;28;20480;-90
2021/11/03 12:43:28;;;;;;;24.20;20.17;;;8.60;98.50;;;;;;5040938;28;20049;-91
2021/11/03 12:46:12;;;;;;;24.50;19.05;;;8.60;98.50;;;;;;5038379;28;20431;-90
2021/11/03 12:48:37;;;;;;;;;;;8.60;98.60;;;;;;5034720;28;20090;-91
2021/11/03 12:51:34;;;;;;;24.52;20.10;;;8.60;98.30;;;;;;5039335;28;19920;-90
2021/11/03 12:54:12;;;;;;;24.17;19.63;;;8.60;98.70;;;;;;5027696;28;20079;-90
2021/11/03 12:56:57;;;;;;;23.25;18.90;;;8.60;98.70;;;;;;5040613;28;20076;-91
2021/11/03 12:59:26;;;;;;;22.70;19.13;;;8.60;98.60;;;;;;5037598;28;20064;-89
2021/11/03 13:01:56;;;;;;;22.95;19.35;;;8.70;98.70;;;;;;5042805;28;20040;-90